sensor_id;sensor_type;location;lat;lon;timestamp;P1;durP1;ratioP1;P2;durP2;ratioP2
78426;SDS011;67722;50.204;8.570;2023-05-09T00:00:10;15.10;;;8.35;;
78426;SDS011;67722;50.204;8.570;2023-05-09T00:02:37;12.02;;;8.52;;
78426;SDS011;67722;50.204;8.570;2023-05-09T00:05:03;11.25;;;8.40;;
78426;SDS011;67722;50.204;8.570;2023-05-09T00:07:29;13.35;;;8.25;;
78426;SDS011;67722;50.204;8.570;2023-05-09T00:09:55;11.82;;;8.57;;
78426;SDS011;67722;50.204;8.570;2023-05-09T00:12:21;10.75;;;8.02;;
78426;SDS011;67722;50.204;8.570;2023-05-09T00:14:47;10.93;;;7.38;;
78426;SDS011;67722;50.204;8.570;2023-05-09T00:17:16;11.63;;;8.35;;
78426;SDS011;67722;50.204;8.570;2023-05-09T00:19:42;12.98;;;7.95;;
78426;SDS011;67722;50.204;8.570;2023-05-09T00:22:08;13.60;;;7.97;;
78426;SDS011;67722;50.204;8.570;2023-05-09T00:24:33;10.17;;;7.80;;
78426;SDS011;67722;50.204;8.570;2023-05-09T00:26:59;11.82;;;7.82;;
78426;SDS011;67722;50.204;8.570;2023-05-09T00:29:24;12.00;;;7.90;;
78426;SDS011;67722;50.204;8.570;2023-05-09T00:31:49;12.27;;;7.73;;
78426;SDS011;67722;50.204;8.570;2023-05-09T00:34:15;12.20;;;7.80;;
78426;SDS011;67722;50.204;8.570;2023-05-09T00:36:40;9.43;;;7.05;;
78426;SDS011;67722;50.204;8.570;2023-05-09T00:39:06;9.82;;;7.05;;
78426;SDS011;67722;50.204;8.570;2023-05-09T00:41:31;10.50;;;7.60;;
78426;SDS011;67722;50.204;8.570;2023-05-09T00:43:57;11.30;;;7.28;;
78426;SDS011;67722;50.204;8.570;2023-05-09T00:46:22;10.48;;;7.50;;
78426;SDS011;67722;50.204;8.570;2023-05-09T00:48:47;12.68;;;8.10;;
78426;SDS011;67722;50.204;8.570;2023-05-09T00:51:13;11.07;;;7.95;;
78426;SDS011;67722;50.204;8.570;2023-05-09T00:53:38;13.73;;;8.90;;
78426;SDS011;67722;50.204;8.570;2023-05-09T00:56:04;10.48;;;7.35;;
78426;SDS011;67722;50.204;8.570;2023-05-09T00:58:30;9.75;;;7.20;;
78426;SDS011;67722;50.204;8.570;2023-05-09T01:00:56;11.85;;;7.95;;
78426;SDS011;67722;50.204;8.570;2023-05-09T01:03:21;10.30;;;7.45;;
78426;SDS011;67722;50.204;8.570;2023-05-09T01:05:57;9.63;;;7.32;;
78426;SDS011;67722;50.204;8.570;2023-05-09T01:16:54;13.80;;;7.88;;
78426;SDS011;67722;50.204;8.570;2023-05-09T01:19:47;16.35;;;7.65;;
78426;SDS011;67722;50.204;8.570;2023-05-09T01:22:18;12.00;;;8.48;;
78426;SDS011;67722;50.204;8.570;2023-05-09T01:27:56;10.65;;;7.93;;
78426;SDS011;67722;50.204;8.570;2023-05-09T01:30:23;12.70;;;8.15;;
78426;SDS011;67722;50.204;8.570;2023-05-09T01:32:50;11.50;;;8.38;;
78426;SDS011;67722;50.204;8.570;2023-05-09T01:35:18;12.23;;;8.63;;
78426;SDS011;67722;50.204;8.570;2023-05-09T01:37:46;9.60;;;6.68;;
78426;SDS011;67722;50.204;8.570;2023-05-09T01:42:44;11.55;;;8.07;;
78426;SDS011;67722;50.204;8.570;2023-05-09T01:45:14;12.20;;;8.40;;
78426;SDS011;67722;50.204;8.570;2023-05-09T01:47:40;13.63;;;9.27;;
78426;SDS011;67722;50.204;8.570;2023-05-09T01:50:06;12.45;;;7.85;;
78426;SDS011;67722;50.204;8.570;2023-05-09T01:52:33;14.57;;;8.07;;
78426;SDS011;67722;50.204;8.570;2023-05-09T01:55:00;12.55;;;8.55;;
78426;SDS011;67722;50.204;8.570;2023-05-09T01:57:26;12.23;;;8.48;;
78426;SDS011;67722;50.204;8.570;2023-05-09T01:59:53;12.70;;;8.40;;
78426;SDS011;67722;50.204;8.570;2023-05-09T02:02:19;12.65;;;8.63;;
78426;SDS011;67722;50.204;8.570;2023-05-09T02:04:45;10.98;;;7.43;;
78426;SDS011;67722;50.204;8.570;2023-05-09T02:07:11;13.48;;;8.30;;
78426;SDS011;67722;50.204;8.570;2023-05-09T02:09:37;12.02;;;8.35;;
78426;SDS011;67722;50.204;8.570;2023-05-09T02:12:02;12.75;;;8.15;;
78426;SDS011;67722;50.204;8.570;2023-05-09T02:14:30;11.77;;;7.95;;
78426;SDS011;67722;50.204;8.570;2023-05-09T02:16:56;13.90;;;8.98;;
78426;SDS011;67722;50.204;8.570;2023-05-09T02:19:22;15.00;;;9.98;;
78426;SDS011;67722;50.204;8.570;2023-05-09T02:21:47;13.87;;;8.93;;
78426;SDS011;67722;50.204;8.570;2023-05-09T02:24:13;17.75;;;8.73;;
78426;SDS011;67722;50.204;8.570;2023-05-09T02:26:38;15.13;;;8.87;;
78426;SDS011;67722;50.204;8.570;2023-05-09T02:29:04;13.00;;;8.73;;
78426;SDS011;67722;50.204;8.570;2023-05-09T02:31:31;14.23;;;9.13;;
78426;SDS011;67722;50.204;8.570;2023-05-09T02:33:57;13.50;;;9.07;;
78426;SDS011;67722;50.204;8.570;2023-05-09T02:36:23;12.55;;;8.57;;
78426;SDS011;67722;50.204;8.570;2023-05-09T02:38:48;14.52;;;9.93;;
78426;SDS011;67722;50.204;8.570;2023-05-09T02:41:14;15.30;;;9.32;;
78426;SDS011;67722;50.204;8.570;2023-05-09T02:43:40;12.35;;;8.57;;
78426;SDS011;67722;50.204;8.570;2023-05-09T02:46:06;14.18;;;8.48;;
78426;SDS011;67722;50.204;8.570;2023-05-09T02:48:31;13.05;;;8.82;;
78426;SDS011;67722;50.204;8.570;2023-05-09T02:50:57;14.67;;;9.67;;
78426;SDS011;67722;50.204;8.570;2023-05-09T02:53:22;12.52;;;8.27;;
78426;SDS011;67722;50.204;8.570;2023-05-09T02:55:48;14.73;;;10.05;;
78426;SDS011;67722;50.204;8.570;2023-05-09T02:58:14;16.75;;;9.63;;
78426;SDS011;67722;50.204;8.570;2023-05-09T03:00:39;15.18;;;9.82;;
78426;SDS011;67722;50.204;8.570;2023-05-09T03:03:05;14.37;;;10.00;;
78426;SDS011;67722;50.204;8.570;2023-05-09T03:05:30;20.20;;;10.93;;
78426;SDS011;67722;50.204;8.570;2023-05-09T03:07:55;18.07;;;10.97;;
78426;SDS011;67722;50.204;8.570;2023-05-09T03:10:21;20.70;;;11.45;;
78426;SDS011;67722;50.204;8.570;2023-05-09T03:12:46;17.37;;;10.97;;
78426;SDS011;67722;50.204;8.570;2023-05-09T03:15:11;18.17;;;10.93;;
78426;SDS011;67722;50.204;8.570;2023-05-09T03:17:37;20.10;;;11.43;;
78426;SDS011;67722;50.204;8.570;2023-05-09T03:20:02;16.57;;;10.87;;
78426;SDS011;67722;50.204;8.570;2023-05-09T03:22:29;17.10;;;10.73;;
78426;SDS011;67722;50.204;8.570;2023-05-09T03:24:55;15.18;;;10.13;;
78426;SDS011;67722;50.204;8.570;2023-05-09T03:27:20;18.47;;;10.67;;
78426;SDS011;67722;50.204;8.570;2023-05-09T03:29:45;17.37;;;10.80;;
78426;SDS011;67722;50.204;8.570;2023-05-09T03:32:11;16.87;;;11.40;;
78426;SDS011;67722;50.204;8.570;2023-05-09T03:34:36;15.85;;;10.70;;
78426;SDS011;67722;50.204;8.570;2023-05-09T03:37:01;16.07;;;10.63;;
78426;SDS011;67722;50.204;8.570;2023-05-09T03:39:27;15.90;;;11.07;;
78426;SDS011;67722;50.204;8.570;2023-05-09T03:41:52;15.67;;;9.87;;
78426;SDS011;67722;50.204;8.570;2023-05-09T03:44:17;16.03;;;10.17;;
78426;SDS011;67722;50.204;8.570;2023-05-09T03:46:43;15.13;;;10.50;;
78426;SDS011;67722;50.204;8.570;2023-05-09T03:49:08;16.95;;;10.63;;
78426;SDS011;67722;50.204;8.570;2023-05-09T03:51:33;18.87;;;11.73;;
78426;SDS011;67722;50.204;8.570;2023-05-09T03:53:59;16.33;;;10.75;;
78426;SDS011;67722;50.204;8.570;2023-05-09T03:56:24;16.77;;;10.50;;
78426;SDS011;67722;50.204;8.570;2023-05-09T03:58:50;18.98;;;12.18;;
78426;SDS011;67722;50.204;8.570;2023-05-09T04:01:15;17.17;;;11.85;;
78426;SDS011;67722;50.204;8.570;2023-05-09T04:03:41;18.80;;;11.18;;
78426;SDS011;67722;50.204;8.570;2023-05-09T04:06:07;17.30;;;11.65;;
78426;SDS011;67722;50.204;8.570;2023-05-09T04:08:32;19.37;;;10.90;;
78426;SDS011;67722;50.204;8.570;2023-05-09T04:10:57;18.77;;;11.35;;
78426;SDS011;67722;50.204;8.570;2023-05-09T04:13:23;18.77;;;10.73;;
78426;SDS011;67722;50.204;8.570;2023-05-09T04:15:48;20.13;;;12.55;;
78426;SDS011;67722;50.204;8.570;2023-05-09T04:18:13;17.77;;;11.57;;
78426;SDS011;67722;50.204;8.570;2023-05-09T04:20:39;21.23;;;12.50;;
78426;SDS011;67722;50.204;8.570;2023-05-09T04:23:04;20.17;;;11.80;;
78426;SDS011;67722;50.204;8.570;2023-05-09T04:25:30;21.17;;;12.52;;
78426;SDS011;67722;50.204;8.570;2023-05-09T04:27:55;20.65;;;11.82;;
78426;SDS011;67722;50.204;8.570;2023-05-09T04:30:21;18.92;;;11.80;;
78426;SDS011;67722;50.204;8.570;2023-05-09T04:32:47;19.45;;;12.85;;
78426;SDS011;67722;50.204;8.570;2023-05-09T04:35:12;23.00;;;13.10;;
78426;SDS011;67722;50.204;8.570;2023-05-09T04:37:38;19.63;;;11.82;;
78426;SDS011;67722;50.204;8.570;2023-05-09T04:40:04;20.67;;;12.93;;
78426;SDS011;67722;50.204;8.570;2023-05-09T04:42:30;21.92;;;11.75;;
78426;SDS011;67722;50.204;8.570;2023-05-09T04:44:57;18.60;;;12.38;;
78426;SDS011;67722;50.204;8.570;2023-05-09T04:47:23;18.13;;;12.48;;
78426;SDS011;67722;50.204;8.570;2023-05-09T04:49:48;21.00;;;12.00;;
78426;SDS011;67722;50.204;8.570;2023-05-09T04:52:14;20.97;;;13.23;;
78426;SDS011;67722;50.204;8.570;2023-05-09T04:54:39;18.08;;;11.68;;
78426;SDS011;67722;50.204;8.570;2023-05-09T04:57:05;18.90;;;13.32;;
78426;SDS011;67722;50.204;8.570;2023-05-09T04:59:30;18.85;;;12.18;;
78426;SDS011;67722;50.204;8.570;2023-05-09T05:01:56;18.98;;;12.32;;
78426;SDS011;67722;50.204;8.570;2023-05-09T05:04:22;19.35;;;12.13;;
78426;SDS011;67722;50.204;8.570;2023-05-09T05:06:47;21.52;;;12.75;;
78426;SDS011;67722;50.204;8.570;2023-05-09T05:09:12;21.00;;;12.93;;
78426;SDS011;67722;50.204;8.570;2023-05-09T05:11:38;21.02;;;12.88;;
78426;SDS011;67722;50.204;8.570;2023-05-09T05:14:03;20.00;;;12.17;;
78426;SDS011;67722;50.204;8.570;2023-05-09T05:16:29;21.25;;;13.38;;
78426;SDS011;67722;50.204;8.570;2023-05-09T05:18:54;19.13;;;12.73;;
78426;SDS011;67722;50.204;8.570;2023-05-09T05:21:20;20.52;;;13.65;;
78426;SDS011;67722;50.204;8.570;2023-05-09T05:23:45;19.97;;;13.30;;
78426;SDS011;67722;50.204;8.570;2023-05-09T05:26:10;20.30;;;13.33;;
78426;SDS011;67722;50.204;8.570;2023-05-09T05:28:36;19.40;;;12.07;;
78426;SDS011;67722;50.204;8.570;2023-05-09T05:31:01;22.60;;;13.18;;
78426;SDS011;67722;50.204;8.570;2023-05-09T05:33:26;23.30;;;13.97;;
78426;SDS011;67722;50.204;8.570;2023-05-09T05:35:52;20.23;;;12.83;;
78426;SDS011;67722;50.204;8.570;2023-05-09T05:38:17;19.05;;;13.07;;
78426;SDS011;67722;50.204;8.570;2023-05-09T05:40:42;21.35;;;13.82;;
78426;SDS011;67722;50.204;8.570;2023-05-09T05:43:08;22.10;;;13.23;;
78426;SDS011;67722;50.204;8.570;2023-05-09T05:45:33;22.43;;;14.40;;
78426;SDS011;67722;50.204;8.570;2023-05-09T05:47:58;22.20;;;14.10;;
78426;SDS011;67722;50.204;8.570;2023-05-09T05:50:24;18.60;;;12.68;;
78426;SDS011;67722;50.204;8.570;2023-05-09T05:52:50;22.17;;;13.87;;
78426;SDS011;67722;50.204;8.570;2023-05-09T05:55:15;18.52;;;12.88;;
78426;SDS011;67722;50.204;8.570;2023-05-09T05:57:40;19.10;;;12.83;;
78426;SDS011;67722;50.204;8.570;2023-05-09T06:00:06;19.73;;;12.63;;
78426;SDS011;67722;50.204;8.570;2023-05-09T06:02:35;17.08;;;11.55;;
78426;SDS011;67722;50.204;8.570;2023-05-09T06:05:01;21.45;;;13.35;;
78426;SDS011;67722;50.204;8.570;2023-05-09T06:07:27;21.33;;;13.35;;
78426;SDS011;67722;50.204;8.570;2023-05-09T06:09:53;18.63;;;13.10;;
78426;SDS011;67722;50.204;8.570;2023-05-09T06:12:18;19.60;;;12.47;;
78426;SDS011;67722;50.204;8.570;2023-05-09T06:14:43;21.23;;;12.05;;
78426;SDS011;67722;50.204;8.570;2023-05-09T06:17:09;20.00;;;12.30;;
78426;SDS011;67722;50.204;8.570;2023-05-09T06:19:34;17.35;;;11.55;;
78426;SDS011;67722;50.204;8.570;2023-05-09T06:21:59;18.27;;;12.00;;
78426;SDS011;67722;50.204;8.570;2023-05-09T06:24:25;18.58;;;12.60;;
78426;SDS011;67722;50.204;8.570;2023-05-09T06:26:50;22.98;;;12.85;;
78426;SDS011;67722;50.204;8.570;2023-05-09T06:29:16;19.30;;;11.98;;
78426;SDS011;67722;50.204;8.570;2023-05-09T06:31:41;21.35;;;13.75;;
78426;SDS011;67722;50.204;8.570;2023-05-09T06:34:07;18.27;;;12.87;;
78426;SDS011;67722;50.204;8.570;2023-05-09T06:36:32;20.08;;;12.10;;
78426;SDS011;67722;50.204;8.570;2023-05-09T06:38:58;20.60;;;12.40;;
78426;SDS011;67722;50.204;8.570;2023-05-09T06:41:24;22.33;;;13.32;;
78426;SDS011;67722;50.204;8.570;2023-05-09T06:43:50;19.08;;;12.85;;
78426;SDS011;67722;50.204;8.570;2023-05-09T06:46:15;19.38;;;12.85;;
78426;SDS011;67722;50.204;8.570;2023-05-09T06:48:40;20.25;;;12.60;;
78426;SDS011;67722;50.204;8.570;2023-05-09T06:51:06;24.30;;;13.65;;
78426;SDS011;67722;50.204;8.570;2023-05-09T06:53:32;20.17;;;13.45;;
78426;SDS011;67722;50.204;8.570;2023-05-09T06:55:57;19.67;;;12.77;;
78426;SDS011;67722;50.204;8.570;2023-05-09T06:58:23;19.13;;;12.32;;
78426;SDS011;67722;50.204;8.570;2023-05-09T07:00:48;21.67;;;12.35;;
78426;SDS011;67722;50.204;8.570;2023-05-09T07:03:13;19.55;;;13.93;;
78426;SDS011;67722;50.204;8.570;2023-05-09T07:05:39;17.88;;;12.43;;
78426;SDS011;67722;50.204;8.570;2023-05-09T07:08:05;21.13;;;13.43;;
78426;SDS011;67722;50.204;8.570;2023-05-09T07:10:30;17.15;;;11.38;;
78426;SDS011;67722;50.204;8.570;2023-05-09T07:12:56;16.75;;;12.13;;
78426;SDS011;67722;50.204;8.570;2023-05-09T07:15:21;16.83;;;12.27;;
78426;SDS011;67722;50.204;8.570;2023-05-09T07:17:47;15.77;;;10.60;;
78426;SDS011;67722;50.204;8.570;2023-05-09T07:20:12;17.67;;;11.37;;
78426;SDS011;67722;50.204;8.570;2023-05-09T07:22:37;15.00;;;11.20;;
78426;SDS011;67722;50.204;8.570;2023-05-09T07:25:04;14.65;;;11.68;;
78426;SDS011;67722;50.204;8.570;2023-05-09T07:27:32;16.10;;;12.65;;
78426;SDS011;67722;50.204;8.570;2023-05-09T07:29:58;14.90;;;10.68;;
78426;SDS011;67722;50.204;8.570;2023-05-09T07:32:23;16.83;;;12.17;;
78426;SDS011;67722;50.204;8.570;2023-05-09T07:34:49;15.45;;;12.35;;
78426;SDS011;67722;50.204;8.570;2023-05-09T07:37:14;19.00;;;13.32;;
78426;SDS011;67722;50.204;8.570;2023-05-09T07:39:39;21.10;;;12.90;;
78426;SDS011;67722;50.204;8.570;2023-05-09T07:42:05;20.02;;;13.20;;
78426;SDS011;67722;50.204;8.570;2023-05-09T07:44:30;15.88;;;11.93;;
78426;SDS011;67722;50.204;8.570;2023-05-09T07:46:56;18.60;;;12.05;;
78426;SDS011;67722;50.204;8.570;2023-05-09T07:49:23;19.95;;;12.35;;
78426;SDS011;67722;50.204;8.570;2023-05-09T07:51:49;18.08;;;11.80;;
78426;SDS011;67722;50.204;8.570;2023-05-09T07:54:15;15.63;;;10.38;;
78426;SDS011;67722;50.204;8.570;2023-05-09T07:56:40;18.90;;;11.25;;
78426;SDS011;67722;50.204;8.570;2023-05-09T07:59:06;17.00;;;11.80;;
78426;SDS011;67722;50.204;8.570;2023-05-09T08:01:31;18.00;;;12.10;;
78426;SDS011;67722;50.204;8.570;2023-05-09T08:03:56;18.42;;;12.40;;
78426;SDS011;67722;50.204;8.570;2023-05-09T08:06:21;17.83;;;12.10;;
78426;SDS011;67722;50.204;8.570;2023-05-09T08:08:47;22.48;;;12.68;;
78426;SDS011;67722;50.204;8.570;2023-05-09T08:11:12;17.47;;;11.63;;
78426;SDS011;67722;50.204;8.570;2023-05-09T08:13:38;21.33;;;12.57;;
78426;SDS011;67722;50.204;8.570;2023-05-09T08:16:03;17.37;;;11.80;;
78426;SDS011;67722;50.204;8.570;2023-05-09T08:18:28;18.13;;;12.35;;
78426;SDS011;67722;50.204;8.570;2023-05-09T08:20:54;17.73;;;11.48;;
78426;SDS011;67722;50.204;8.570;2023-05-09T08:23:19;18.27;;;11.87;;
78426;SDS011;67722;50.204;8.570;2023-05-09T08:25:45;16.95;;;11.10;;
78426;SDS011;67722;50.204;8.570;2023-05-09T08:28:10;16.42;;;11.77;;
78426;SDS011;67722;50.204;8.570;2023-05-09T08:30:36;17.67;;;11.40;;
78426;SDS011;67722;50.204;8.570;2023-05-09T08:33:01;16.07;;;11.03;;
78426;SDS011;67722;50.204;8.570;2023-05-09T08:35:26;17.23;;;11.43;;
78426;SDS011;67722;50.204;8.570;2023-05-09T08:37:52;18.00;;;11.67;;
78426;SDS011;67722;50.204;8.570;2023-05-09T08:40:17;15.48;;;10.35;;
78426;SDS011;67722;50.204;8.570;2023-05-09T08:42:43;17.63;;;12.23;;
78426;SDS011;67722;50.204;8.570;2023-05-09T08:45:10;16.23;;;11.18;;
78426;SDS011;67722;50.204;8.570;2023-05-09T08:47:40;18.65;;;11.85;;
78426;SDS011;67722;50.204;8.570;2023-05-09T08:50:06;16.55;;;11.32;;
78426;SDS011;67722;50.204;8.570;2023-05-09T08:52:32;20.30;;;11.88;;
78426;SDS011;67722;50.204;8.570;2023-05-09T08:54:59;16.40;;;11.23;;
78426;SDS011;67722;50.204;8.570;2023-05-09T08:57:25;17.83;;;11.75;;
78426;SDS011;67722;50.204;8.570;2023-05-09T08:59:51;19.00;;;11.73;;
78426;SDS011;67722;50.204;8.570;2023-05-09T09:02:17;16.73;;;11.95;;
78426;SDS011;67722;50.204;8.570;2023-05-09T09:04:42;19.40;;;12.50;;
78426;SDS011;67722;50.204;8.570;2023-05-09T09:07:09;16.70;;;11.50;;
78426;SDS011;67722;50.204;8.570;2023-05-09T09:09:35;17.40;;;11.32;;
78426;SDS011;67722;50.204;8.570;2023-05-09T09:12:01;16.48;;;10.80;;
78426;SDS011;67722;50.204;8.570;2023-05-09T09:14:30;16.67;;;11.35;;
78426;SDS011;67722;50.204;8.570;2023-05-09T09:16:56;16.67;;;9.98;;
78426;SDS011;67722;50.204;8.570;2023-05-09T09:19:23;15.13;;;9.40;;
78426;SDS011;67722;50.204;8.570;2023-05-09T09:21:54;15.80;;;10.50;;
78426;SDS011;67722;50.204;8.570;2023-05-09T09:24:21;17.42;;;11.18;;
78426;SDS011;67722;50.204;8.570;2023-05-09T09:26:47;16.20;;;10.40;;
78426;SDS011;67722;50.204;8.570;2023-05-09T09:29:14;19.52;;;11.73;;
78426;SDS011;67722;50.204;8.570;2023-05-09T09:31:42;17.05;;;11.43;;
78426;SDS011;67722;50.204;8.570;2023-05-09T09:34:09;17.95;;;11.40;;
78426;SDS011;67722;50.204;8.570;2023-05-09T09:36:35;16.50;;;10.35;;
78426;SDS011;67722;50.204;8.570;2023-05-09T09:39:02;18.50;;;11.18;;
78426;SDS011;67722;50.204;8.570;2023-05-09T09:41:32;17.17;;;10.98;;
78426;SDS011;67722;50.204;8.570;2023-05-09T09:44:04;17.15;;;11.80;;
78426;SDS011;67722;50.204;8.570;2023-05-09T09:46:39;18.70;;;11.55;;
78426;SDS011;67722;50.204;8.570;2023-05-09T09:49:26;19.20;;;10.18;;
78426;SDS011;67722;50.204;8.570;2023-05-09T09:51:51;14.23;;;9.20;;
78426;SDS011;67722;50.204;8.570;2023-05-09T09:54:18;15.00;;;10.10;;
78426;SDS011;67722;50.204;8.570;2023-05-09T09:56:44;15.02;;;9.30;;
78426;SDS011;67722;50.204;8.570;2023-05-09T09:59:15;14.88;;;10.27;;
78426;SDS011;67722;50.204;8.570;2023-05-09T10:04:19;13.43;;;9.35;;
78426;SDS011;67722;50.204;8.570;2023-05-09T10:06:51;13.07;;;9.10;;
78426;SDS011;67722;50.204;8.570;2023-05-09T10:09:20;13.70;;;9.50;;
78426;SDS011;67722;50.204;8.570;2023-05-09T10:11:48;14.07;;;10.15;;
78426;SDS011;67722;50.204;8.570;2023-05-09T10:14:15;16.17;;;10.50;;
78426;SDS011;67722;50.204;8.570;2023-05-09T10:16:49;15.25;;;10.00;;
78426;SDS011;67722;50.204;8.570;2023-05-09T10:19:16;14.52;;;9.95;;
78426;SDS011;67722;50.204;8.570;2023-05-09T10:21:45;16.15;;;10.02;;
78426;SDS011;67722;50.204;8.570;2023-05-09T10:24:15;15.70;;;9.60;;
78426;SDS011;67722;50.204;8.570;2023-05-09T10:26:42;16.40;;;9.93;;
78426;SDS011;67722;50.204;8.570;2023-05-09T10:29:10;14.63;;;10.20;;
78426;SDS011;67722;50.204;8.570;2023-05-09T10:31:36;16.00;;;10.35;;
78426;SDS011;67722;50.204;8.570;2023-05-09T10:34:04;15.68;;;10.95;;
78426;SDS011;67722;50.204;8.570;2023-05-09T10:36:34;15.93;;;10.38;;
78426;SDS011;67722;50.204;8.570;2023-05-09T10:38:59;15.80;;;10.85;;
78426;SDS011;67722;50.204;8.570;2023-05-09T10:41:25;15.48;;;10.07;;
78426;SDS011;67722;50.204;8.570;2023-05-09T10:43:50;15.57;;;10.35;;
78426;SDS011;67722;50.204;8.570;2023-05-09T10:46:16;15.77;;;10.48;;
78426;SDS011;67722;50.204;8.570;2023-05-09T10:48:42;14.57;;;10.38;;
78426;SDS011;67722;50.204;8.570;2023-05-09T10:51:08;13.23;;;9.70;;
78426;SDS011;67722;50.204;8.570;2023-05-09T10:53:49;14.48;;;9.57;;
78426;SDS011;67722;50.204;8.570;2023-05-09T10:56:22;15.00;;;8.45;;
78426;SDS011;67722;50.204;8.570;2023-05-09T10:58:53;14.75;;;8.65;;
78426;SDS011;67722;50.204;8.570;2023-05-09T11:04:08;13.65;;;9.63;;
78426;SDS011;67722;50.204;8.570;2023-05-09T11:09:33;14.48;;;9.93;;
78426;SDS011;67722;50.204;8.570;2023-05-09T11:17:47;13.70;;;9.48;;
78426;SDS011;67722;50.204;8.570;2023-05-09T11:22:20;13.53;;;9.23;;
78426;SDS011;67722;50.204;8.570;2023-05-09T11:24:46;12.55;;;9.43;;
78426;SDS011;67722;50.204;8.570;2023-05-09T11:27:15;11.82;;;8.50;;
78426;SDS011;67722;50.204;8.570;2023-05-09T11:29:50;10.73;;;8.38;;
78426;SDS011;67722;50.204;8.570;2023-05-09T11:34:44;12.63;;;8.80;;
78426;SDS011;67722;50.204;8.570;2023-05-09T11:37:10;11.45;;;8.43;;
78426;SDS011;67722;50.204;8.570;2023-05-09T11:39:53;10.60;;;8.02;;
78426;SDS011;67722;50.204;8.570;2023-05-09T11:42:21;11.32;;;8.25;;
78426;SDS011;67722;50.204;8.570;2023-05-09T11:44:47;15.48;;;9.43;;
78426;SDS011;67722;50.204;8.570;2023-05-09T11:47:12;13.40;;;8.32;;
78426;SDS011;67722;50.204;8.570;2023-05-09T11:49:41;10.88;;;7.65;;
78426;SDS011;67722;50.204;8.570;2023-05-09T11:52:07;12.45;;;7.95;;
78426;SDS011;67722;50.204;8.570;2023-05-09T11:54:33;10.07;;;7.72;;
78426;SDS011;67722;50.204;8.570;2023-05-09T11:57:02;9.52;;;7.13;;
78426;SDS011;67722;50.204;8.570;2023-05-09T11:59:27;12.15;;;8.30;;
78426;SDS011;67722;50.204;8.570;2023-05-09T12:01:53;10.27;;;7.55;;
78426;SDS011;67722;50.204;8.570;2023-05-09T12:04:18;10.23;;;7.53;;
78426;SDS011;67722;50.204;8.570;2023-05-09T12:06:47;13.23;;;9.80;;
78426;SDS011;67722;50.204;8.570;2023-05-09T12:09:15;15.35;;;10.50;;
78426;SDS011;67722;50.204;8.570;2023-05-09T12:11:47;13.13;;;9.27;;
78426;SDS011;67722;50.204;8.570;2023-05-09T12:14:24;14.40;;;9.80;;
78426;SDS011;67722;50.204;8.570;2023-05-09T12:16:51;14.60;;;9.60;;
78426;SDS011;67722;50.204;8.570;2023-05-09T12:19:17;15.60;;;10.67;;
78426;SDS011;67722;50.204;8.570;2023-05-09T12:21:43;17.55;;;10.65;;
78426;SDS011;67722;50.204;8.570;2023-05-09T12:24:08;17.05;;;10.68;;
78426;SDS011;67722;50.204;8.570;2023-05-09T12:26:33;18.27;;;11.45;;
78426;SDS011;67722;50.204;8.570;2023-05-09T12:28:59;15.95;;;10.70;;
78426;SDS011;67722;50.204;8.570;2023-05-09T12:31:25;19.33;;;11.77;;
78426;SDS011;67722;50.204;8.570;2023-05-09T12:33:50;19.20;;;10.73;;
78426;SDS011;67722;50.204;8.570;2023-05-09T12:36:15;19.77;;;12.23;;
78426;SDS011;67722;50.204;8.570;2023-05-09T12:38:50;19.15;;;11.70;;
78426;SDS011;67722;50.204;8.570;2023-05-09T12:41:17;20.80;;;12.00;;
78426;SDS011;67722;50.204;8.570;2023-05-09T12:43:45;19.23;;;12.30;;
78426;SDS011;67722;50.204;8.570;2023-05-09T12:46:12;19.58;;;11.93;;
78426;SDS011;67722;50.204;8.570;2023-05-09T12:48:42;17.55;;;12.23;;
78426;SDS011;67722;50.204;8.570;2023-05-09T12:51:08;16.85;;;10.23;;
78426;SDS011;67722;50.204;8.570;2023-05-09T12:53:37;13.35;;;9.63;;
78426;SDS011;67722;50.204;8.570;2023-05-09T12:56:04;16.75;;;10.98;;
78426;SDS011;67722;50.204;8.570;2023-05-09T13:01:14;13.82;;;9.63;;
78426;SDS011;67722;50.204;8.570;2023-05-09T13:03:39;15.35;;;8.93;;
78426;SDS011;67722;50.204;8.570;2023-05-09T13:06:08;14.55;;;9.07;;
78426;SDS011;67722;50.204;8.570;2023-05-09T13:08:37;13.25;;;9.30;;
78426;SDS011;67722;50.204;8.570;2023-05-09T13:11:03;12.40;;;9.38;;
78426;SDS011;67722;50.204;8.570;2023-05-09T13:13:29;14.93;;;9.93;;
78426;SDS011;67722;50.204;8.570;2023-05-09T13:15:54;13.60;;;9.77;;
78426;SDS011;67722;50.204;8.570;2023-05-09T13:18:20;12.85;;;9.23;;
78426;SDS011;67722;50.204;8.570;2023-05-09T13:20:45;16.67;;;9.88;;
78426;SDS011;67722;50.204;8.570;2023-05-09T13:23:11;13.23;;;9.50;;
78426;SDS011;67722;50.204;8.570;2023-05-09T13:25:37;16.13;;;10.02;;
78426;SDS011;67722;50.204;8.570;2023-05-09T13:28:02;14.07;;;9.75;;
78426;SDS011;67722;50.204;8.570;2023-05-09T13:30:28;14.98;;;9.98;;
78426;SDS011;67722;50.204;8.570;2023-05-09T13:32:53;13.25;;;9.48;;
78426;SDS011;67722;50.204;8.570;2023-05-09T13:35:19;14.23;;;9.45;;
78426;SDS011;67722;50.204;8.570;2023-05-09T13:37:44;12.93;;;9.57;;
78426;SDS011;67722;50.204;8.570;2023-05-09T13:40:10;13.50;;;9.15;;
78426;SDS011;67722;50.204;8.570;2023-05-09T13:42:37;14.30;;;9.20;;
78426;SDS011;67722;50.204;8.570;2023-05-09T13:45:03;13.73;;;10.25;;
78426;SDS011;67722;50.204;8.570;2023-05-09T13:47:28;16.23;;;9.82;;
78426;SDS011;67722;50.204;8.570;2023-05-09T13:49:54;15.60;;;11.07;;
78426;SDS011;67722;50.204;8.570;2023-05-09T13:52:19;15.10;;;10.35;;
78426;SDS011;67722;50.204;8.570;2023-05-09T13:54:45;15.05;;;9.63;;
78426;SDS011;67722;50.204;8.570;2023-05-09T13:57:10;9.82;;;7.18;;
78426;SDS011;67722;50.204;8.570;2023-05-09T13:59:36;11.75;;;8.32;;
78426;SDS011;67722;50.204;8.570;2023-05-09T14:02:02;10.43;;;8.13;;
78426;SDS011;67722;50.204;8.570;2023-05-09T14:04:28;9.63;;;6.93;;
78426;SDS011;67722;50.204;8.570;2023-05-09T14:06:57;11.45;;;7.80;;
78426;SDS011;67722;50.204;8.570;2023-05-09T14:09:22;10.23;;;7.72;;
78426;SDS011;67722;50.204;8.570;2023-05-09T14:11:48;11.57;;;7.93;;
78426;SDS011;67722;50.204;8.570;2023-05-09T14:14:17;13.30;;;8.30;;
78426;SDS011;67722;50.204;8.570;2023-05-09T14:16:45;12.50;;;7.40;;
78426;SDS011;67722;50.204;8.570;2023-05-09T14:19:10;11.00;;;8.02;;
78426;SDS011;67722;50.204;8.570;2023-05-09T14:21:36;8.95;;;6.47;;
78426;SDS011;67722;50.204;8.570;2023-05-09T14:24:01;8.30;;;5.65;;
78426;SDS011;67722;50.204;8.570;2023-05-09T14:26:27;8.30;;;6.03;;
78426;SDS011;67722;50.204;8.570;2023-05-09T14:28:53;8.18;;;6.28;;
78426;SDS011;67722;50.204;8.570;2023-05-09T14:31:18;10.18;;;7.15;;
78426;SDS011;67722;50.204;8.570;2023-05-09T14:33:43;10.35;;;7.20;;
78426;SDS011;67722;50.204;8.570;2023-05-09T14:36:09;10.45;;;7.63;;
78426;SDS011;67722;50.204;8.570;2023-05-09T14:38:35;10.95;;;7.20;;
78426;SDS011;67722;50.204;8.570;2023-05-09T14:41:00;11.77;;;7.38;;
78426;SDS011;67722;50.204;8.570;2023-05-09T14:43:26;6.97;;;5.03;;
78426;SDS011;67722;50.204;8.570;2023-05-09T14:45:52;9.45;;;7.03;;
78426;SDS011;67722;50.204;8.570;2023-05-09T14:48:17;9.02;;;6.55;;
78426;SDS011;67722;50.204;8.570;2023-05-09T14:50:43;10.17;;;6.83;;
78426;SDS011;67722;50.204;8.570;2023-05-09T14:53:08;9.35;;;6.80;;
78426;SDS011;67722;50.204;8.570;2023-05-09T14:55:35;8.90;;;5.88;;
78426;SDS011;67722;50.204;8.570;2023-05-09T14:58:00;12.18;;;7.05;;